sensor_id;sensor_type;location;lat;lon;timestamp;P1;durP1;ratioP1;P2;durP2;ratioP2
47225;SDS011;32965;64.142;-21.912;2023-07-22T00:02:00;36.75;;;22.27;;
47225;SDS011;32965;64.142;-21.912;2023-07-22T00:04:26;32.70;;;20.50;;
47225;SDS011;32965;64.142;-21.912;2023-07-22T00:06:52;34.92;;;20.75;;
47225;SDS011;32965;64.142;-21.912;2023-07-22T00:09:18;35.00;;;19.90;;
47225;SDS011;32965;64.142;-21.912;2023-07-22T00:11:44;32.80;;;20.67;;
47225;SDS011;32965;64.142;-21.912;2023-07-22T00:14:10;29.67;;;19.77;;
47225;SDS011;32965;64.142;-21.912;2023-07-22T00:16:35;30.98;;;20.02;;
47225;SDS011;32965;64.142;-21.912;2023-07-22T00:19:01;30.83;;;18.35;;
47225;SDS011;32965;64.142;-21.912;2023-07-22T00:21:27;31.75;;;18.77;;
47225;SDS011;32965;64.142;-21.912;2023-07-22T00:23:54;32.10;;;18.50;;
47225;SDS011;32965;64.142;-21.912;2023-07-22T00:26:20;33.60;;;19.35;;
47225;SDS011;32965;64.142;-21.912;2023-07-22T00:28:46;32.22;;;18.88;;
47225;SDS011;32965;64.142;-21.912;2023-07-22T00:31:11;27.35;;;17.95;;
47225;SDS011;32965;64.142;-21.912;2023-07-22T00:33:37;28.75;;;17.38;;
47225;SDS011;32965;64.142;-21.912;2023-07-22T00:36:03;26.38;;;17.33;;
47225;SDS011;32965;64.142;-21.912;2023-07-22T00:38:29;29.30;;;16.73;;
47225;SDS011;32965;64.142;-21.912;2023-07-22T00:40:56;23.92;;;15.77;;
47225;SDS011;32965;64.142;-21.912;2023-07-22T00:43:21;25.38;;;15.75;;
47225;SDS011;32965;64.142;-21.912;2023-07-22T00:45:47;24.42;;;15.48;;
47225;SDS011;32965;64.142;-21.912;2023-07-22T00:48:13;23.10;;;14.45;;
47225;SDS011;32965;64.142;-21.912;2023-07-22T00:50:40;23.17;;;14.70;;
47225;SDS011;32965;64.142;-21.912;2023-07-22T00:53:06;22.35;;;12.95;;
47225;SDS011;32965;64.142;-21.912;2023-07-22T00:55:32;22.65;;;14.15;;
47225;SDS011;32965;64.142;-21.912;2023-07-22T00:58:00;22.15;;;13.55;;
47225;SDS011;32965;64.142;-21.912;2023-07-22T01:00:26;19.50;;;12.70;;
47225;SDS011;32965;64.142;-21.912;2023-07-22T01:02:52;18.95;;;11.85;;
47225;SDS011;32965;64.142;-21.912;2023-07-22T01:05:18;20.65;;;12.68;;
47225;SDS011;32965;64.142;-21.912;2023-07-22T01:07:44;18.70;;;11.75;;
47225;SDS011;32965;64.142;-21.912;2023-07-22T01:10:10;19.08;;;12.55;;
47225;SDS011;32965;64.142;-21.912;2023-07-22T01:12:37;21.08;;;11.90;;
47225;SDS011;32965;64.142;-21.912;2023-07-22T01:15:03;20.23;;;12.30;;
47225;SDS011;32965;64.142;-21.912;2023-07-22T01:19:59;17.92;;;11.27;;
47225;SDS011;32965;64.142;-21.912;2023-07-22T01:22:25;14.32;;;9.90;;
47225;SDS011;32965;64.142;-21.912;2023-07-22T01:24:53;14.68;;;9.38;;
47225;SDS011;32965;64.142;-21.912;2023-07-22T01:27:19;15.43;;;8.25;;
47225;SDS011;32965;64.142;-21.912;2023-07-22T01:29:45;13.35;;;8.02;;
47225;SDS011;32965;64.142;-21.912;2023-07-22T01:32:11;16.42;;;8.40;;
47225;SDS011;32965;64.142;-21.912;2023-07-22T01:34:37;15.25;;;7.53;;
47225;SDS011;32965;64.142;-21.912;2023-07-22T01:37:02;14.55;;;8.57;;
47225;SDS011;32965;64.142;-21.912;2023-07-22T01:39:29;11.23;;;6.30;;
47225;SDS011;32965;64.142;-21.912;2023-07-22T01:41:55;11.32;;;6.38;;
47225;SDS011;32965;64.142;-21.912;2023-07-22T01:44:21;11.52;;;6.07;;
47225;SDS011;32965;64.142;-21.912;2023-07-22T01:46:46;9.55;;;5.82;;
47225;SDS011;32965;64.142;-21.912;2023-07-22T01:49:12;11.85;;;6.90;;
47225;SDS011;32965;64.142;-21.912;2023-07-22T01:51:38;10.13;;;5.57;;
47225;SDS011;32965;64.142;-21.912;2023-07-22T01:56:34;9.90;;;5.65;;
47225;SDS011;32965;64.142;-21.912;2023-07-22T01:59:01;11.73;;;5.15;;
47225;SDS011;32965;64.142;-21.912;2023-07-22T02:01:27;9.60;;;5.70;;
47225;SDS011;32965;64.142;-21.912;2023-07-22T02:03:53;9.73;;;5.43;;
47225;SDS011;32965;64.142;-21.912;2023-07-22T02:06:20;10.80;;;5.53;;
47225;SDS011;32965;64.142;-21.912;2023-07-22T02:08:45;9.48;;;5.68;;
47225;SDS011;32965;64.142;-21.912;2023-07-22T02:11:11;10.60;;;5.80;;
47225;SDS011;32965;64.142;-21.912;2023-07-22T02:13:38;11.65;;;6.35;;
47225;SDS011;32965;64.142;-21.912;2023-07-22T02:16:05;15.20;;;6.35;;
47225;SDS011;32965;64.142;-21.912;2023-07-22T02:18:31;12.18;;;6.57;;
47225;SDS011;32965;64.142;-21.912;2023-07-22T02:20:57;14.75;;;6.93;;
47225;SDS011;32965;64.142;-21.912;2023-07-22T02:23:23;11.20;;;6.30;;
47225;SDS011;32965;64.142;-21.912;2023-07-22T02:25:50;13.05;;;6.10;;
47225;SDS011;32965;64.142;-21.912;2023-07-22T02:28:17;12.30;;;6.18;;
47225;SDS011;32965;64.142;-21.912;2023-07-22T02:30:48;11.13;;;5.03;;
47225;SDS011;32965;64.142;-21.912;2023-07-22T02:33:15;11.10;;;5.07;;
47225;SDS011;32965;64.142;-21.912;2023-07-22T02:35:41;12.95;;;4.88;;
47225;SDS011;32965;64.142;-21.912;2023-07-22T02:38:07;8.85;;;5.45;;
47225;SDS011;32965;64.142;-21.912;2023-07-22T02:40:34;10.50;;;5.65;;
47225;SDS011;32965;64.142;-21.912;2023-07-22T02:43:00;9.57;;;4.35;;
47225;SDS011;32965;64.142;-21.912;2023-07-22T02:45:26;12.25;;;4.90;;
47225;SDS011;32965;64.142;-21.912;2023-07-22T02:47:51;12.52;;;5.32;;
47225;SDS011;32965;64.142;-21.912;2023-07-22T02:50:17;8.32;;;4.65;;
47225;SDS011;32965;64.142;-21.912;2023-07-22T02:52:43;9.60;;;4.38;;
47225;SDS011;32965;64.142;-21.912;2023-07-22T02:55:13;9.68;;;4.93;;
47225;SDS011;32965;64.142;-21.912;2023-07-22T02:57:43;8.88;;;4.47;;
47225;SDS011;32965;64.142;-21.912;2023-07-22T03:00:14;9.77;;;4.82;;
47225;SDS011;32965;64.142;-21.912;2023-07-22T03:02:48;8.68;;;4.43;;
47225;SDS011;32965;64.142;-21.912;2023-07-22T03:05:16;11.70;;;5.25;;
47225;SDS011;32965;64.142;-21.912;2023-07-22T03:07:41;9.68;;;4.72;;
47225;SDS011;32965;64.142;-21.912;2023-07-22T03:10:07;8.25;;;4.38;;
47225;SDS011;32965;64.142;-21.912;2023-07-22T03:12:34;9.25;;;4.47;;
47225;SDS011;32965;64.142;-21.912;2023-07-22T03:15:01;11.05;;;4.85;;
47225;SDS011;32965;64.142;-21.912;2023-07-22T03:17:28;11.10;;;4.85;;
47225;SDS011;32965;64.142;-21.912;2023-07-22T03:19:55;11.18;;;4.50;;
47225;SDS011;32965;64.142;-21.912;2023-07-22T03:22:20;8.98;;;4.15;;
47225;SDS011;32965;64.142;-21.912;2023-07-22T03:24:46;9.40;;;4.50;;
47225;SDS011;32965;64.142;-21.912;2023-07-22T03:27:12;8.80;;;4.60;;
47225;SDS011;32965;64.142;-21.912;2023-07-22T03:29:40;10.77;;;4.75;;
47225;SDS011;32965;64.142;-21.912;2023-07-22T03:32:06;8.93;;;3.95;;
47225;SDS011;32965;64.142;-21.912;2023-07-22T03:34:32;8.50;;;4.32;;
47225;SDS011;32965;64.142;-21.912;2023-07-22T03:36:58;8.23;;;4.30;;
47225;SDS011;32965;64.142;-21.912;2023-07-22T03:39:24;8.93;;;4.20;;
47225;SDS011;32965;64.142;-21.912;2023-07-22T03:41:50;10.32;;;5.10;;
47225;SDS011;32965;64.142;-21.912;2023-07-22T03:44:16;8.88;;;4.90;;
47225;SDS011;32965;64.142;-21.912;2023-07-22T03:46:41;10.68;;;4.72;;
47225;SDS011;32965;64.142;-21.912;2023-07-22T03:49:07;11.23;;;5.13;;
47225;SDS011;32965;64.142;-21.912;2023-07-22T03:51:33;8.68;;;4.22;;
47225;SDS011;32965;64.142;-21.912;2023-07-22T03:53:59;10.15;;;4.40;;
47225;SDS011;32965;64.142;-21.912;2023-07-22T03:56:25;9.52;;;5.30;;
47225;SDS011;32965;64.142;-21.912;2023-07-22T03:58:51;9.73;;;4.57;;
47225;SDS011;32965;64.142;-21.912;2023-07-22T04:01:17;11.48;;;4.57;;
47225;SDS011;32965;64.142;-21.912;2023-07-22T04:03:43;11.23;;;5.20;;
47225;SDS011;32965;64.142;-21.912;2023-07-22T04:06:09;10.93;;;5.20;;
47225;SDS011;32965;64.142;-21.912;2023-07-22T04:08:35;8.98;;;4.18;;
47225;SDS011;32965;64.142;-21.912;2023-07-22T04:11:01;8.00;;;4.05;;
47225;SDS011;32965;64.142;-21.912;2023-07-22T04:13:27;8.18;;;3.88;;
47225;SDS011;32965;64.142;-21.912;2023-07-22T04:15:53;8.80;;;4.28;;
47225;SDS011;32965;64.142;-21.912;2023-07-22T04:18:19;8.35;;;4.45;;
47225;SDS011;32965;64.142;-21.912;2023-07-22T04:20:46;11.15;;;4.70;;
47225;SDS011;32965;64.142;-21.912;2023-07-22T04:23:13;8.10;;;4.55;;
47225;SDS011;32965;64.142;-21.912;2023-07-22T04:25:39;9.63;;;4.22;;
47225;SDS011;32965;64.142;-21.912;2023-07-22T04:28:06;7.35;;;3.88;;
47225;SDS011;32965;64.142;-21.912;2023-07-22T04:30:35;10.65;;;4.20;;
47225;SDS011;32965;64.142;-21.912;2023-07-22T04:33:01;10.13;;;4.30;;
47225;SDS011;32965;64.142;-21.912;2023-07-22T04:35:31;11.98;;;4.32;;
47225;SDS011;32965;64.142;-21.912;2023-07-22T04:37:58;7.50;;;4.00;;
47225;SDS011;32965;64.142;-21.912;2023-07-22T04:40:24;7.97;;;4.05;;
47225;SDS011;32965;64.142;-21.912;2023-07-22T04:42:51;8.35;;;3.65;;
47225;SDS011;32965;64.142;-21.912;2023-07-22T04:45:17;9.65;;;4.30;;
47225;SDS011;32965;64.142;-21.912;2023-07-22T04:47:45;10.27;;;3.53;;
47225;SDS011;32965;64.142;-21.912;2023-07-22T04:50:13;8.45;;;3.58;;
47225;SDS011;32965;64.142;-21.912;2023-07-22T04:52:41;7.90;;;3.58;;
47225;SDS011;32965;64.142;-21.912;2023-07-22T04:55:08;8.65;;;3.53;;
47225;SDS011;32965;64.142;-21.912;2023-07-22T04:57:35;6.95;;;4.05;;
47225;SDS011;32965;64.142;-21.912;2023-07-22T05:00:02;5.38;;;2.78;;
47225;SDS011;32965;64.142;-21.912;2023-07-22T05:02:29;12.95;;;3.85;;
47225;SDS011;32965;64.142;-21.912;2023-07-22T05:04:57;7.50;;;3.17;;
47225;SDS011;32965;64.142;-21.912;2023-07-22T05:07:23;7.10;;;3.58;;
47225;SDS011;32965;64.142;-21.912;2023-07-22T05:09:49;8.43;;;4.00;;
47225;SDS011;32965;64.142;-21.912;2023-07-22T05:12:16;8.63;;;3.65;;
47225;SDS011;32965;64.142;-21.912;2023-07-22T05:14:42;9.32;;;3.50;;
47225;SDS011;32965;64.142;-21.912;2023-07-22T05:17:10;8.88;;;3.20;;
47225;SDS011;32965;64.142;-21.912;2023-07-22T05:19:35;6.40;;;3.50;;
47225;SDS011;32965;64.142;-21.912;2023-07-22T05:22:01;8.25;;;4.25;;
47225;SDS011;32965;64.142;-21.912;2023-07-22T05:24:27;9.20;;;3.63;;
47225;SDS011;32965;64.142;-21.912;2023-07-22T05:26:53;7.65;;;3.83;;
47225;SDS011;32965;64.142;-21.912;2023-07-22T05:29:19;5.15;;;3.25;;
47225;SDS011;32965;64.142;-21.912;2023-07-22T05:31:45;6.38;;;3.17;;
47225;SDS011;32965;64.142;-21.912;2023-07-22T05:34:11;6.05;;;3.63;;
47225;SDS011;32965;64.142;-21.912;2023-07-22T05:36:37;7.13;;;3.53;;
47225;SDS011;32965;64.142;-21.912;2023-07-22T05:39:03;7.60;;;3.63;;
47225;SDS011;32965;64.142;-21.912;2023-07-22T05:41:29;10.23;;;4.15;;
47225;SDS011;32965;64.142;-21.912;2023-07-22T05:43:55;7.20;;;3.67;;
47225;SDS011;32965;64.142;-21.912;2023-07-22T05:46:20;9.43;;;3.90;;
47225;SDS011;32965;64.142;-21.912;2023-07-22T05:48:46;9.70;;;4.60;;
47225;SDS011;32965;64.142;-21.912;2023-07-22T05:51:12;9.57;;;4.20;;
47225;SDS011;32965;64.142;-21.912;2023-07-22T05:53:39;8.48;;;4.55;;
47225;SDS011;32965;64.142;-21.912;2023-07-22T05:56:05;11.77;;;4.53;;
47225;SDS011;32965;64.142;-21.912;2023-07-22T05:58:31;8.18;;;3.70;;
47225;SDS011;32965;64.142;-21.912;2023-07-22T06:00:57;8.73;;;4.00;;
47225;SDS011;32965;64.142;-21.912;2023-07-22T06:03:22;6.13;;;3.70;;
47225;SDS011;32965;64.142;-21.912;2023-07-22T06:05:48;9.55;;;4.15;;
47225;SDS011;32965;64.142;-21.912;2023-07-22T06:08:14;11.10;;;4.35;;
47225;SDS011;32965;64.142;-21.912;2023-07-22T06:10:40;10.38;;;4.63;;
47225;SDS011;32965;64.142;-21.912;2023-07-22T06:13:06;8.15;;;3.67;;
47225;SDS011;32965;64.142;-21.912;2023-07-22T06:15:32;7.32;;;4.00;;
47225;SDS011;32965;64.142;-21.912;2023-07-22T06:17:58;7.22;;;4.35;;
47225;SDS011;32965;64.142;-21.912;2023-07-22T06:20:27;7.63;;;4.20;;
47225;SDS011;32965;64.142;-21.912;2023-07-22T06:22:53;7.90;;;3.80;;
47225;SDS011;32965;64.142;-21.912;2023-07-22T06:25:20;8.02;;;3.92;;
47225;SDS011;32965;64.142;-21.912;2023-07-22T06:27:45;5.78;;;3.47;;
47225;SDS011;32965;64.142;-21.912;2023-07-22T06:30:11;7.45;;;3.63;;
47225;SDS011;32965;64.142;-21.912;2023-07-22T06:32:38;8.90;;;3.70;;
47225;SDS011;32965;64.142;-21.912;2023-07-22T06:35:04;9.85;;;4.05;;
47225;SDS011;32965;64.142;-21.912;2023-07-22T06:37:30;8.43;;;3.75;;
47225;SDS011;32965;64.142;-21.912;2023-07-22T06:39:56;7.22;;;3.03;;
47225;SDS011;32965;64.142;-21.912;2023-07-22T06:42:22;8.75;;;3.20;;
47225;SDS011;32965;64.142;-21.912;2023-07-22T06:44:48;6.68;;;3.33;;
47225;SDS011;32965;64.142;-21.912;2023-07-22T06:47:15;8.57;;;3.65;;
47225;SDS011;32965;64.142;-21.912;2023-07-22T06:49:41;7.53;;;3.35;;
47225;SDS011;32965;64.142;-21.912;2023-07-22T06:52:07;5.88;;;2.83;;
47225;SDS011;32965;64.142;-21.912;2023-07-22T06:54:33;6.65;;;3.00;;
47225;SDS011;32965;64.142;-21.912;2023-07-22T06:57:00;7.20;;;3.28;;
47225;SDS011;32965;64.142;-21.912;2023-07-22T06:59:25;6.03;;;3.00;;
47225;SDS011;32965;64.142;-21.912;2023-07-22T07:01:52;7.95;;;3.22;;
47225;SDS011;32965;64.142;-21.912;2023-07-22T07:04:18;5.75;;;3.50;;
47225;SDS011;32965;64.142;-21.912;2023-07-22T07:06:44;6.75;;;3.28;;
47225;SDS011;32965;64.142;-21.912;2023-07-22T07:09:11;6.72;;;3.38;;
47225;SDS011;32965;64.142;-21.912;2023-07-22T07:11:37;6.35;;;3.55;;
47225;SDS011;32965;64.142;-21.912;2023-07-22T07:14:03;6.80;;;3.47;;
47225;SDS011;32965;64.142;-21.912;2023-07-22T07:16:29;6.63;;;3.13;;
47225;SDS011;32965;64.142;-21.912;2023-07-22T07:18:57;7.28;;;3.30;;
47225;SDS011;32965;64.142;-21.912;2023-07-22T07:21:23;6.75;;;3.80;;
47225;SDS011;32965;64.142;-21.912;2023-07-22T07:23:50;7.75;;;3.63;;
47225;SDS011;32965;64.142;-21.912;2023-07-22T07:26:16;6.80;;;3.33;;
47225;SDS011;32965;64.142;-21.912;2023-07-22T07:28:43;7.40;;;3.38;;
47225;SDS011;32965;64.142;-21.912;2023-07-22T07:31:09;10.57;;;3.65;;
47225;SDS011;32965;64.142;-21.912;2023-07-22T07:33:35;9.77;;;3.83;;
47225;SDS011;32965;64.142;-21.912;2023-07-22T07:36:01;10.32;;;4.63;;
47225;SDS011;32965;64.142;-21.912;2023-07-22T07:38:28;9.73;;;4.60;;
47225;SDS011;32965;64.142;-21.912;2023-07-22T07:41:12;7.35;;;3.92;;
47225;SDS011;32965;64.142;-21.912;2023-07-22T07:43:39;9.48;;;4.35;;
47225;SDS011;32965;64.142;-21.912;2023-07-22T07:46:22;8.23;;;4.13;;
47225;SDS011;32965;64.142;-21.912;2023-07-22T07:48:53;8.52;;;4.47;;
47225;SDS011;32965;64.142;-21.912;2023-07-22T07:51:21;7.78;;;4.00;;
47225;SDS011;32965;64.142;-21.912;2023-07-22T07:53:49;10.88;;;4.50;;
47225;SDS011;32965;64.142;-21.912;2023-07-22T07:56:15;9.43;;;4.50;;
47225;SDS011;32965;64.142;-21.912;2023-07-22T07:58:42;8.57;;;4.28;;
47225;SDS011;32965;64.142;-21.912;2023-07-22T08:01:09;9.82;;;4.65;;
47225;SDS011;32965;64.142;-21.912;2023-07-22T08:03:35;8.90;;;4.65;;
47225;SDS011;32965;64.142;-21.912;2023-07-22T08:06:02;11.30;;;4.82;;
47225;SDS011;32965;64.142;-21.912;2023-07-22T08:08:28;11.77;;;5.38;;
47225;SDS011;32965;64.142;-21.912;2023-07-22T08:11:05;6.30;;;3.30;;
47225;SDS011;32965;64.142;-21.912;2023-07-22T08:13:33;6.50;;;3.85;;
47225;SDS011;32965;64.142;-21.912;2023-07-22T08:16:17;7.63;;;4.05;;
47225;SDS011;32965;64.142;-21.912;2023-07-22T08:18:43;6.75;;;3.92;;
47225;SDS011;32965;64.142;-21.912;2023-07-22T08:21:12;8.93;;;3.65;;
47225;SDS011;32965;64.142;-21.912;2023-07-22T08:23:37;9.80;;;4.43;;
47225;SDS011;32965;64.142;-21.912;2023-07-22T08:26:04;8.88;;;4.15;;
47225;SDS011;32965;64.142;-21.912;2023-07-22T08:28:31;7.63;;;4.38;;
47225;SDS011;32965;64.142;-21.912;2023-07-22T08:30:57;7.72;;;4.18;;
47225;SDS011;32965;64.142;-21.912;2023-07-22T08:33:23;8.77;;;4.40;;
47225;SDS011;32965;64.142;-21.912;2023-07-22T08:35:50;8.77;;;4.35;;
47225;SDS011;32965;64.142;-21.912;2023-07-22T08:38:17;12.05;;;4.15;;
47225;SDS011;32965;64.142;-21.912;2023-07-22T08:40:43;10.20;;;4.15;;
47225;SDS011;32965;64.142;-21.912;2023-07-22T08:43:09;7.57;;;4.28;;
47225;SDS011;32965;64.142;-21.912;2023-07-22T08:45:37;11.65;;;5.25;;
47225;SDS011;32965;64.142;-21.912;2023-07-22T08:48:04;12.07;;;4.35;;
47225;SDS011;32965;64.142;-21.912;2023-07-22T08:50:44;9.07;;;5.07;;
47225;SDS011;32965;64.142;-21.912;2023-07-22T08:53:15;11.15;;;6.18;;
47225;SDS011;32965;64.142;-21.912;2023-07-22T08:55:41;10.32;;;4.53;;
47225;SDS011;32965;64.142;-21.912;2023-07-22T08:58:08;9.50;;;4.68;;
47225;SDS011;32965;64.142;-21.912;2023-07-22T09:00:35;10.65;;;4.35;;
47225;SDS011;32965;64.142;-21.912;2023-07-22T09:03:01;11.98;;;4.95;;
47225;SDS011;32965;64.142;-21.912;2023-07-22T09:05:27;11.88;;;4.80;;
47225;SDS011;32965;64.142;-21.912;2023-07-22T09:07:54;10.65;;;4.72;;
47225;SDS011;32965;64.142;-21.912;2023-07-22T09:10:21;10.07;;;4.55;;
47225;SDS011;32965;64.142;-21.912;2023-07-22T09:12:49;11.13;;;5.13;;
47225;SDS011;32965;64.142;-21.912;2023-07-22T09:15:16;8.30;;;4.55;;
47225;SDS011;32965;64.142;-21.912;2023-07-22T09:17:43;11.18;;;5.00;;
47225;SDS011;32965;64.142;-21.912;2023-07-22T09:20:11;11.18;;;5.80;;
47225;SDS011;32965;64.142;-21.912;2023-07-22T09:22:47;11.77;;;5.53;;
47225;SDS011;32965;64.142;-21.912;2023-07-22T09:25:21;15.68;;;6.43;;
47225;SDS011;32965;64.142;-21.912;2023-07-22T09:27:51;9.90;;;4.97;;
47225;SDS011;32965;64.142;-21.912;2023-07-22T09:32:55;16.63;;;7.43;;
47225;SDS011;32965;64.142;-21.912;2023-07-22T09:35:24;15.57;;;6.93;;
47225;SDS011;32965;64.142;-21.912;2023-07-22T09:37:52;12.48;;;6.40;;
47225;SDS011;32965;64.142;-21.912;2023-07-22T09:40:21;15.32;;;7.28;;
47225;SDS011;32965;64.142;-21.912;2023-07-22T09:43:00;14.98;;;7.05;;
47225;SDS011;32965;64.142;-21.912;2023-07-22T09:45:28;15.32;;;6.75;;
47225;SDS011;32965;64.142;-21.912;2023-07-22T09:47:55;16.77;;;7.80;;
47225;SDS011;32965;64.142;-21.912;2023-07-22T09:50:23;13.57;;;7.00;;
47225;SDS011;32965;64.142;-21.912;2023-07-22T09:52:51;15.40;;;7.90;;
47225;SDS011;32965;64.142;-21.912;2023-07-22T09:55:19;15.88;;;8.32;;
47225;SDS011;32965;64.142;-21.912;2023-07-22T09:58:11;18.08;;;8.30;;
47225;SDS011;32965;64.142;-21.912;2023-07-22T10:00:39;23.27;;;9.02;;
47225;SDS011;32965;64.142;-21.912;2023-07-22T10:03:12;14.32;;;7.55;;
47225;SDS011;32965;64.142;-21.912;2023-07-22T10:05:41;16.88;;;6.50;;
47225;SDS011;32965;64.142;-21.912;2023-07-22T10:08:08;14.15;;;7.10;;
47225;SDS011;32965;64.142;-21.912;2023-07-22T10:10:38;16.40;;;7.38;;
47225;SDS011;32965;64.142;-21.912;2023-07-22T10:13:04;20.13;;;9.38;;
47225;SDS011;32965;64.142;-21.912;2023-07-22T10:15:32;14.52;;;7.85;;
47225;SDS011;32965;64.142;-21.912;2023-07-22T10:17:59;13.50;;;7.60;;
47225;SDS011;32965;64.142;-21.912;2023-07-22T10:20:29;14.43;;;7.40;;
47225;SDS011;32965;64.142;-21.912;2023-07-22T10:22:59;16.77;;;7.82;;
47225;SDS011;32965;64.142;-21.912;2023-07-22T10:25:25;14.82;;;7.80;;
47225;SDS011;32965;64.142;-21.912;2023-07-22T10:27:52;16.75;;;6.80;;
47225;SDS011;32965;64.142;-21.912;2023-07-22T10:30:19;10.90;;;6.07;;
47225;SDS011;32965;64.142;-21.912;2023-07-22T10:32:49;13.68;;;7.20;;
47225;SDS011;32965;64.142;-21.912;2023-07-22T10:38:18;15.38;;;8.15;;
47225;SDS011;32965;64.142;-21.912;2023-07-22T10:40:50;14.90;;;6.30;;
47225;SDS011;32965;64.142;-21.912;2023-07-22T10:43:24;11.32;;;6.05;;
47225;SDS011;32965;64.142;-21.912;2023-07-22T10:45:55;10.98;;;6.32;;
47225;SDS011;32965;64.142;-21.912;2023-07-22T10:48:26;11.70;;;6.00;;
47225;SDS011;32965;64.142;-21.912;2023-07-22T11:11:55;12.55;;;6.40;;
47225;SDS011;32965;64.142;-21.912;2023-07-22T11:14:27;14.23;;;7.28;;
47225;SDS011;32965;64.142;-21.912;2023-07-22T11:16:57;13.43;;;6.50;;
47225;SDS011;32965;64.142;-21.912;2023-07-22T11:19:26;13.75;;;6.15;;
47225;SDS011;32965;64.142;-21.912;2023-07-22T11:21:53;11.27;;;5.63;;
47225;SDS011;32965;64.142;-21.912;2023-07-22T11:24:19;12.38;;;6.15;;
47225;SDS011;32965;64.142;-21.912;2023-07-22T11:26:46;13.07;;;5.63;;
47225;SDS011;32965;64.142;-21.912;2023-07-22T11:29:13;15.60;;;7.00;;
47225;SDS011;32965;64.142;-21.912;2023-07-22T11:31:41;14.05;;;6.07;;
47225;SDS011;32965;64.142;-21.912;2023-07-22T11:36:41;15.30;;;7.22;;
47225;SDS011;32965;64.142;-21.912;2023-07-22T11:39:08;11.57;;;6.28;;
47225;SDS011;32965;64.142;-21.912;2023-07-22T11:41:35;10.90;;;6.25;;
47225;SDS011;32965;64.142;-21.912;2023-07-22T11:44:03;13.65;;;6.05;;
47225;SDS011;32965;64.142;-21.912;2023-07-22T11:51:55;13.38;;;5.88;;
47225;SDS011;32965;64.142;-21.912;2023-07-22T11:54:40;12.48;;;5.85;;
47225;SDS011;32965;64.142;-21.912;2023-07-22T11:57:17;11.65;;;5.15;;
47225;SDS011;32965;64.142;-21.912;2023-07-22T11:59:47;9.93;;;4.90;;
47225;SDS011;32965;64.142;-21.912;2023-07-22T12:02:25;10.43;;;5.50;;
47225;SDS011;32965;64.142;-21.912;2023-07-22T12:07:23;11.43;;;6.43;;
47225;SDS011;32965;64.142;-21.912;2023-07-22T12:09:51;9.43;;;4.75;;
47225;SDS011;32965;64.142;-21.912;2023-07-22T12:12:17;13.40;;;5.80;;
47225;SDS011;32965;64.142;-21.912;2023-07-22T12:14:43;12.13;;;6.65;;
47225;SDS011;32965;64.142;-21.912;2023-07-22T12:17:09;9.05;;;5.15;;
47225;SDS011;32965;64.142;-21.912;2023-07-22T12:27:33;15.52;;;6.10;;
47225;SDS011;32965;64.142;-21.912;2023-07-22T12:43:09;9.68;;;5.28;;
47225;SDS011;32965;64.142;-21.912;2023-07-22T12:50:39;9.90;;;5.30;;
47225;SDS011;32965;64.142;-21.912;2023-07-22T12:53:06;9.55;;;5.35;;
47225;SDS011;32965;64.142;-21.912;2023-07-22T12:55:32;10.90;;;5.75;;
47225;SDS011;32965;64.142;-21.912;2023-07-22T13:00:44;10.68;;;5.15;;
47225;SDS011;32965;64.142;-21.912;2023-07-22T13:03:32;11.73;;;5.77;;
47225;SDS011;32965;64.142;-21.912;2023-07-22T13:05:58;11.05;;;5.28;;
47225;SDS011;32965;64.142;-21.912;2023-07-22T13:08:25;8.40;;;3.83;;
47225;SDS011;32965;64.142;-21.912;2023-07-22T13:10:51;12.02;;;5.30;;
47225;SDS011;32965;64.142;-21.912;2023-07-22T13:15:52;9.68;;;4.18;;
47225;SDS011;32965;64.142;-21.912;2023-07-22T13:18:19;11.10;;;5.45;;
47225;SDS011;32965;64.142;-21.912;2023-07-22T13:20:47;10.65;;;3.90;;
47225;SDS011;32965;64.142;-21.912;2023-07-22T13:23:14;9.90;;;4.85;;
47225;SDS011;32965;64.142;-21.912;2023-07-22T13:25:43;10.10;;;4.38;;
47225;SDS011;32965;64.142;-21.912;2023-07-22T13:30:56;10.85;;;5.28;;
47225;SDS011;32965;64.142;-21.912;2023-07-22T13:41:08;8.15;;;4.28;;
47225;SDS011;32965;64.142;-21.912;2023-07-22T14:01:40;14.48;;;5.82;;
47225;SDS011;32965;64.142;-21.912;2023-07-22T14:36:30;10.50;;;5.75;;
47225;SDS011;32965;64.142;-21.912;2023-07-22T14:38:57;7.68;;;4.38;;
47225;SDS011;32965;64.142;-21.912;2023-07-22T14:41:23;10.55;;;4.65;;
47225;SDS011;32965;64.142;-21.912;2023-07-22T14:43:49;9.02;;;5.07;;
47225;SDS011;32965;64.142;-21.912;2023-07-22T14:46:15;8.05;;;4.82;;
47225;SDS011;32965;64.142;-21.912;2023-07-22T14:48:41;9.55;;;4.15;;
47225;SDS011;32965;64.142;-21.912;2023-07-22T14:56:18;9.45;;;5.07;;
47225;SDS011;32965;64.142;-21.912;2023-07-22T14:58:44;11.35;;;5.55;;
47225;SDS011;32965;64.142;-21.912;2023-07-22T15:03:46;7.30;;;4.60;;
47225;SDS011;32965;64.142;-21.912;2023-07-22T15:06:12;10.15;;;5.43;;
47225;SDS011;32965;64.142;-21.912;2023-07-22T15:08:38;7.60;;;3.97;;
47225;SDS011;32965;64.142;-21.912;2023-07-22T15:11:04;10.88;;;5.47;;
47225;SDS011;32965;64.142;-21.912;2023-07-22T15:13:30;9.00;;;4.70;;
47225;SDS011;32965;64.142;-21.912;2023-07-22T15:15:56;9.30;;;4.75;;
47225;SDS011;32965;64.142;-21.912;2023-07-22T15:18:22;13.40;;;5.57;;
47225;SDS011;32965;64.142;-21.912;2023-07-22T15:20:52;10.27;;;4.05;;
47225;SDS011;32965;64.142;-21.912;2023-07-22T15:25:48;9.10;;;4.53;;
47225;SDS011;32965;64.142;-21.912;2023-07-22T15:28:14;8.02;;;4.90;;
47225;SDS011;32965;64.142;-21.912;2023-07-22T15:33:31;9.07;;;2.95;;
47225;SDS011;32965;64.142;-21.912;2023-07-22T15:35:58;9.52;;;4.72;;
47225;SDS011;32965;64.142;-21.912;2023-07-22T15:38:24;12.18;;;5.50;;
47225;SDS011;32965;64.142;-21.912;2023-07-22T15:40:52;12.80;;;5.10;;
47225;SDS011;32965;64.142;-21.912;2023-07-22T15:43:19;8.43;;;4.55;;
47225;SDS011;32965;64.142;-21.912;2023-07-22T15:51:02;10.23;;;6.30;;
47225;SDS011;32965;64.142;-21.912;2023-07-22T15:53:28;11.45;;;4.55;;
47225;SDS011;32965;64.142;-21.912;2023-07-22T15:55:54;9.45;;;5.55;;
47225;SDS011;32965;64.142;-21.912;2023-07-22T15:58:20;8.43;;;4.80;;
47225;SDS011;32965;64.142;-21.912;2023-07-22T16:00:46;9.52;;;5.20;;
47225;SDS011;32965;64.142;-21.912;2023-07-22T16:03:13;9.32;;;5.38;;
47225;SDS011;32965;64.142;-21.912;2023-07-22T16:05:39;11.18;;;4.72;;
47225;SDS011;32965;64.142;-21.912;2023-07-22T16:08:05;14.57;;;5.13;;
47225;SDS011;32965;64.142;-21.912;2023-07-22T16:10:31;9.23;;;4.50;;
47225;SDS011;32965;64.142;-21.912;2023-07-22T16:13:00;7.95;;;3.38;;
47225;SDS011;32965;64.142;-21.912;2023-07-22T16:15:45;8.45;;;4.78;;
47225;SDS011;32965;64.142;-21.912;2023-07-22T16:18:11;10.73;;;5.40;;
47225;SDS011;32965;64.142;-21.912;2023-07-22T16:20:37;9.63;;;5.05;;
47225;SDS011;32965;64.142;-21.912;2023-07-22T16:23:03;9.35;;;4.45;;
47225;SDS011;32965;64.142;-21.912;2023-07-22T16:25:29;10.98;;;4.95;;
47225;SDS011;32965;64.142;-21.912;2023-07-22T16:27:54;11.38;;;4.75;;
47225;SDS011;32965;64.142;-21.912;2023-07-22T16:30:28;11.52;;;5.53;;
47225;SDS011;32965;64.142;-21.912;2023-07-22T16:32:53;10.77;;;5.40;;
47225;SDS011;32965;64.142;-21.912;2023-07-22T16:35:19;8.63;;;4.60;;
47225;SDS011;32965;64.142;-21.912;2023-07-22T16:37:45;11.18;;;4.75;;
47225;SDS011;32965;64.142;-21.912;2023-07-22T16:42:46;10.18;;;5.72;;
47225;SDS011;32965;64.142;-21.912;2023-07-22T16:47:48;15.23;;;6.25;;
47225;SDS011;32965;64.142;-21.912;2023-07-22T16:50:14;14.70;;;5.25;;
47225;SDS011;32965;64.142;-21.912;2023-07-22T17:01:19;5.78;;;2.75;;